Terminal Aerodrome Forecast
Issued by NWS

Home | Current Version | Previous Version | Text Only | Print | Product List | Glossary On
Versions: 1 2 3 4 5 6 7 8 9 10 11 12 13 14 15 16 17 18
000
FTUS43 KLSX 152149 AAA
TAFUIN
TAF AMD
KUIN 152149Z 1522/1618 23008KT P6SM FEW250
     FM160500 21010G17KT P6SM FEW250 WS014/24045KT
     FM161600 22012G22KT P6SM FEW250=

USA.gov is the U.S. government's official web portal to all federal, state and local government web resources and services.